Chatham, United Kingdom
Current Conditions -  °F | °C
As of 5:50 PM on Saturday 22 Nov 2014 (Local Time) from EGMC Reporting Station
Light Rain Light Rain  
Wind Chill: 55°   Ceiling: 1000
Heat Index: 55°   Visibility: 4mi
Dew Point: 54°   Wind: 2mph
Humidity: 94%   Direction: 170°S
Pressure: 29.94"   Gusts: NA
Location:  51.38°N, 0.53°E
Report Text: EGMC 221750Z 17002KT 6000 -RADZ BKN010 13/12 Q1014
Loading
Personal Weather Stations






























Interactive Weather Map New forecast layout! Learn more

10-Day Weather Forecast

Advertisements
Track Severe Weather on mobile